• Join FlightAware (Why Join?)
  • Login
  • US Flag 
05:10AM EDT


 

Airport Tracker/Info


-or-


 

Live Flight TrackerFlight Track Log ✈ UAL1677 ✈ 26-Jun-2013 ✈ KSFO - KEWR

Flight Track Log - Related Links

Times and Time Zones

All times are in EDT time to prevent confusion due to time zone crossing. See the UAL1677 flight status page for this flight to view local times or setup timezone preferences in your user account.

Time Position Orientation Groundspeed Altitude Reporting Facility
EDT Latitude Longitude Course Direction KTS MPH feet Rate Location/Type
02:18PM 37.6500 -122.3500 43° Northeast 189 217 1,300  Level Northern Cal TRACON
02:19PM 37.7000 -122.2833 47° Northeast 226 260 3,200 2,100 Climbing Northern Cal TRACON
02:20PM 37.6205 -122.3929 117° Southeast  Level FlightAware Approximate
02:21PM 37.7062 -122.2771 38° Northeast  Level FlightAware Approximate
02:21PM 37.7956 -122.1700 43° Northeast 284 327 7,500  Level Oakland Center
02:22PM 37.8129 -122.1705 38° Northeast  Level FlightAware Approximate
02:22PM 37.8653 -122.1053 36° Northeast 306 352 10,000  Level Oakland Center
02:23PM 37.9121 -122.0555 43° Northeast  Level FlightAware Approximate
02:23PM 37.9589 -122.0161 37° Northeast 366 421 11,600  Level Oakland Center
02:24PM 38.0422 -121.9353 37° Northeast 379 436 13,600 1,980 Climbing Oakland Center
02:25PM 38.1303 -121.8519 37° Northeast 394 453 15,700 1,860 Climbing Oakland Center
02:26PM 38.2214 -121.7647 37° Northeast 409 471 17,500 1,620 Climbing Oakland Center
02:27PM 38.3147 -121.6736 37° Northeast 422 486 19,100 1,440 Climbing Oakland Center
02:28PM 38.4131 -121.5794 37° Northeast 440 506 20,500 1,320 Climbing Oakland Center
02:29PM 38.4978 -121.4572 48° Northeast 465 535 21,900 1,500 Climbing Oakland Center
02:30PM 38.5906 -121.2975 53° Northeast 470 541 23,600 1,500 Climbing Oakland Center
02:31PM 38.6717 -121.1619 53° Northeast 479 551 25,000 1,140 Climbing Oakland Center
02:32PM 38.7425 -121.0389 54° Northeast 483 556 26,000 1,020 Climbing Oakland Center
02:33PM 38.8242 -120.8972 53° Northeast 490 564 27,100 960 Climbing Oakland Center
02:34PM 38.9247 -120.7222 54° Northeast 504 580 28,000 420 Climbing Oakland Center
02:35PM 39.0075 -120.5756 54° Northeast 508 585 28,000  Level Oakland Center
02:36PM 39.0917 -120.4294 53° Northeast 507 583 28,000 240 Level Oakland Center
02:37PM 39.1750 -120.2839 54° Northeast 506 582 28,500 480 Climbing Oakland Center
02:38PM 39.2589 -120.1392 53° Northeast 503 579 29,000 660 Climbing Oakland Center
02:39PM 39.3531 -119.9817 52° Northeast 514 592 29,900 960 Climbing Oakland Center
02:40PM 39.4361 -119.8317 54° Northeast 513 590 31,000 840 Climbing Oakland Center
02:41PM 39.5203 -119.6814 54° Northeast 514 592 31,700 780 Climbing Oakland Center
02:42PM 39.5889 -119.5150 62° Northeast 518 596 32,600 900 Climbing Oakland Center
02:43PM 39.6558 -119.3483 62° Northeast 517 595 33,600 960 Climbing Oakland Center
02:44PM 39.7208 -119.1797 63° Northeast 520 598 34,600 660 Climbing Oakland Center
02:45PM 39.7853 -119.0125 63° Northeast 515 593 35,000 180 Climbing Oakland Center
02:46PM 39.8519 -118.8436 63° Northeast 518 596 35,000  Level Oakland Center
02:47PM 39.9156 -118.6761 64° Northeast 513 590 35,000  Level Oakland Center
02:48PM 39.9808 -118.5094 63° Northeast 513 590 35,000  Level Oakland Center
02:49PM 40.0439 -118.3403 64° Northeast 514 592 35,000  Level Oakland Center
02:50PM 40.1197 -118.1394 64° Northeast 515 593 35,000  Level Oakland Center
02:51PM 40.1422 -118.0797 64° Northeast 513 590 35,000  Level Salt Lake Center
02:52PM 40.2131 -117.8925 64° Northeast 513 590 35,000  Level Salt Lake Center
02:52PM 40.2456 -117.8031 65° Northeast 515 593 35,000  Level Oakland Center
02:53PM 40.3028 -117.6517 64° Northeast 514 592 35,000  Level Oakland Center
02:54PM 40.3422 -117.5442 64° Northeast 512 589 35,000  Level Salt Lake Center
02:55PM 40.4022 -117.3828 64° Northeast 512 589 35,000  Level Salt Lake Center
02:56PM 40.4717 -117.1947 64° Northeast 510 587 35,000  Level Salt Lake Center
02:57PM 40.5331 -117.0328 63° Northeast 510 587 35,000  Level Salt Lake Center
02:58PM 40.5928 -116.8656 65° Northeast 515 593 35,000  Level Salt Lake Center
02:59PM 40.6661 -116.6778 63° Northeast 512 589 35,000  Level Salt Lake Center
03:00PM 40.7286 -116.5178 63° Northeast 511 588 35,000  Level Salt Lake Center
03:01PM 40.8006 -116.3308 63° Northeast 511 588 35,000  Level Salt Lake Center
03:02PM 40.8625 -116.1700 63° Northeast 512 589 35,000  Level Salt Lake Center
03:03PM 40.9344 -115.9811 63° Northeast 514 592 35,000  Level Salt Lake Center
03:04PM 40.9958 -115.8194 63° Northeast 514 592 35,000  Level Salt Lake Center
03:05PM 41.0558 -115.6581 64° Northeast 512 589 35,000  Level Salt Lake Center
03:06PM 41.1267 -115.4694 63° Northeast 512 589 35,000  Level Salt Lake Center
03:07PM 41.1864 -115.3078 64° Northeast 511 588 35,000  Level Salt Lake Center
03:08PM 41.2556 -115.1186 64° Northeast 510 587 35,000  Level Salt Lake Center
03:09PM 41.3161 -114.9567 63° Northeast 510 587 35,000  Level Salt Lake Center
03:10PM 41.3833 -114.7650 65° Northeast 513 590 35,000  Level Salt Lake Center
03:12PM 41.4461 -114.5969 63° Northeast 509 586 35,000  Level Salt Lake Center
03:13PM 41.5069 -114.4272 64° Northeast 509 586 35,000  Level Salt Lake Center
03:14PM 41.5678 -114.2583 64° Northeast 507 583 35,000  Level Salt Lake Center
03:15PM 41.6281 -114.0894 64° Northeast 504 580 35,000  Level Salt Lake Center
03:16PM 41.7011 -113.8861 64° Northeast 506 582 35,000  Level Salt Lake Center
03:17PM 41.7606 -113.7147 65° Northeast 507 583 35,000  Level Salt Lake Center
03:18PM 41.8208 -113.5442 65° Northeast 507 583 35,000  Level Salt Lake Center
03:19PM 41.8789 -113.3742 65° Northeast 504 580 35,000  Level Salt Lake Center
03:20PM 41.9378 -113.2033 65° Northeast 502 578 35,000  Level Salt Lake Center
03:21PM 41.9967 -113.0325 65° Northeast 503 579 35,000  Level Salt Lake Center
03:22PM 42.0564 -112.8594 65° Northeast 507 583 35,000  Level Salt Lake Center
03:23PM 42.1256 -112.6517 66° East 507 583 35,000  Level Salt Lake Center
03:24PM 42.1836 -112.4806 65° Northeast 504 580 35,000  Level Salt Lake Center
03:25PM 42.2408 -112.3111 65° Northeast 500 575 35,000  Level Salt Lake Center
03:26PM 42.2983 -112.1381 66° East 502 578 35,000  Level Salt Lake Center
03:27PM 42.3547 -111.9656 66° East 502 578 35,000  Level Salt Lake Center
03:28PM 42.4119 -111.7958 65° Northeast 498 573 35,000  Level Salt Lake Center
03:29PM 42.4792 -111.5908 66° East 497 572 35,000  Level Salt Lake Center
03:30PM 42.5353 -111.4183 66° East 500 575 35,000  Level Salt Lake Center
03:31PM 42.5914 -111.2442 66° East 504 580 35,000  Level Salt Lake Center
03:32PM 42.6472 -111.0692 67° East 505 581 35,000  Level Salt Lake Center
03:33PM 42.7061 -110.8844 66° East 502 578 35,000  Level Salt Lake Center
03:34PM 42.7667 -110.6933 67° East 503 579 35,000  Level Salt Lake Center
03:35PM 42.8178 -110.5281 67° East 500 575 35,100  Climbing Salt Lake Center
03:36PM 42.8717 -110.3292 70° East 501 577 35,000 -60 Descending Salt Lake Center
03:37PM 42.9181 -110.1583 70° East 504 580 35,000  Level Salt Lake Center
03:38PM 42.9725 -109.9594 69° East 502 578 35,000  Level Salt Lake Center
03:39PM 43.0219 -109.7794 69° East 506 582 35,000  Level Salt Lake Center
03:40PM 43.0692 -109.6050 70° East 509 586 35,000  Level Salt Lake Center
03:41PM 43.1236 -109.4022 70° East 510 587 35,000  Level Salt Lake Center
03:43PM 43.1694 -109.2278 70° East 508 585 35,000  Level Salt Lake Center
03:44PM 43.2222 -109.0253 70° East 507 583 35,000  Level Salt Lake Center
03:45PM 43.2694 -108.8514 69° East 507 583 35,000  Level Salt Lake Center
03:46PM 43.3144 -108.6764 70° East 508 585 35,000  Level Salt Lake Center
03:47PM 43.3672 -108.4714 70° East 509 586 35,000  Level Salt Lake Center
03:48PM 43.4111 -108.2947 71° East 510 587 35,000  Level Salt Lake Center
03:49PM 43.4631 -108.0900 71° East 508 585 35,000  Level Salt Lake Center
03:50PM 43.5078 -107.9144 71° East 509 586 35,000  Level Salt Lake Center
03:51PM 43.5592 -107.7081 71° East 510 587 35,000  Level Salt Lake Center
03:52PM 43.6019 -107.5314 71° East 509 586 35,000  Level Salt Lake Center
03:53PM 43.6531 -107.3250 71° East 509 586 35,000  Level Salt Lake Center
03:54PM 43.7003 -107.1283 72° East 509 586 35,000  Level Salt Lake Center
03:55PM 43.7433 -106.9508 71° East 509 586 35,000  Level Salt Lake Center
03:56PM 43.7789 -106.7983 72° East 515 593 35,000  Level Denver Center
03:57PM 43.8214 -106.6192 72° East 514 592 35,000  Level Denver Center
03:58PM 43.8697 -106.4097 72° East 512 589 35,000  Level Denver Center
03:59PM 43.9117 -106.2289 72° East 514 592 35,000  Level Denver Center
04:00PM 43.9614 -106.0175 72° East 515 593 35,000  Level Denver Center
04:01PM 44.0022 -105.8342 73° East 516 594 35,000  Level Denver Center
04:02PM 44.0519 -105.6206 72° East 518 596 35,000  Level Denver Center
04:03PM 44.0919 -105.4383 73° East 518 596 35,000  Level Denver Center
04:04PM 44.1400 -105.2239 73° East 518 596 35,000  Level Denver Center
04:05PM 44.1806 -105.0392 73° East 518 596 35,000  Level Denver Center
04:06PM 44.2200 -104.8561 73° East 518 596 35,000  Level Denver Center
04:07PM 44.2661 -104.6403 73° East 518 596 35,000  Level Denver Center
04:08PM 44.3056 -104.4597 73° East 516 594 35,000  Level Denver Center
04:09PM 44.3525 -104.2447 73° East 517 595 35,000  Level Denver Center
04:10PM 44.3914 -104.0578 74° East 520 598 35,000  Level Denver Center
04:11PM 44.4375 -103.8386 74° East 525 604 35,000  Level Denver Center
04:12PM 44.4753 -103.6500 74° East 525 604 35,000  Level Denver Center
04:13PM 44.5197 -103.4319 74° East 524 603 35,000  Level Denver Center
04:14PM 44.5608 -103.2358 74° East 524 603 35,000  Level Denver Center
04:15PM 44.5989 -103.0386 75° East 524 603 35,000  Level Denver Center
04:16PM 44.6344 -102.8411 76° East 527 606 35,000  Level Denver Center
04:17PM 44.6678 -102.6867 73° East 516 594 35,000  Level Denver Center
04:18PM 44.7133 -102.4539 75° East 516 594 35,000  Level Denver Center
04:19PM 44.7583 -102.2197 75° East 517 595 35,000  Level Denver Center
04:21PM 44.7953 -102.0214 75° East 522 601 35,000  Level Denver Center
04:22PM 44.8325 -101.8256 75° East 520 598 35,000  Level Denver Center
04:23PM 44.8692 -101.6289 75° East 519 597 35,000  Level Denver Center
04:24PM 44.9050 -101.4283 76° East 526 605 35,000  Level Denver Center
04:25PM 44.9322 -101.2708 76° East 522 601 35,000  Level Denver Center
04:26PM 44.9797 -100.9931 76° East 520 598 35,000  Level Denver Center
04:27PM 45.0317 -100.7144 75° East 523 602 35,000  Level Minneapolis Center
04:28PM 45.0675 -100.5142 76° East 523 602 35,000  Level Minneapolis Center
04:29PM 45.1025 -100.3142 76° East 523 602 35,000  Level Minneapolis Center
04:30PM 45.1378 -100.1103 76° East 525 604 35,000  Level Minneapolis Center
04:31PM 45.1758 -99.8975 76° East 534 615 35,000  Level Minneapolis Center
04:32PM 45.2081 -99.6922 77° East 531 611 35,000  Level Minneapolis Center
04:33PM 45.2408 -99.4903 77° East 525 604 35,000  Level Minneapolis Center
04:34PM 45.2733 -99.2892 77° East 523 602 35,000  Level Minneapolis Center
04:35PM 45.3122 -99.0481 77° East 522 601 35,000  Level Minneapolis Center
04:36PM 45.3436 -98.8458 77° East 523 602 35,000  Level Minneapolis Center
04:37PM 45.3756 -98.6444 77° East 523 602 35,000  Level Minneapolis Center
04:38PM 45.4075 -98.4411 77° East 525 604 35,000  Level Minneapolis Center
04:40PM 45.4200 -98.2758 84° East 527 606 35,000  Level Minneapolis Center
04:41PM 45.4058 -98.0094 94° East 541 623 35,000  Level Minneapolis Center
04:42PM 45.3983 -97.7981 93° East 537 618 35,000  Level Minneapolis Center
04:43PM 45.3897 -97.5422 93° East 539 620 35,000  Level Minneapolis Center
04:44PM 45.3794 -97.3297 94° East 539 620 35,000  Level Minneapolis Center
04:45PM 45.3714 -97.1186 93° East 537 618 35,000  Level Minneapolis Center
04:46PM 45.3617 -96.9081 94° East 535 616 35,000  Level Minneapolis Center
04:47PM 45.3522 -96.6969 94° East 536 617 35,000  Level Minneapolis Center
04:48PM 45.3408 -96.4856 94° East 537 618 35,000  Level Minneapolis Center
04:49PM 45.3294 -96.2764 94° East 532 612 35,000  Level Minneapolis Center
04:50PM 45.3175 -96.0236 94° East 534 615 35,000  Level Minneapolis Center
04:51PM 45.3061 -95.8153 94° East 531 611 35,000  Level Minneapolis Center
04:52PM 45.2956 -95.6078 94° East 528 608 35,000  Level Minneapolis Center
04:53PM 45.2833 -95.4008 95° East 527 606 35,000  Level Minneapolis Center
04:54PM 45.2708 -95.1933 95° East 527 606 35,100 420 Climbing Minneapolis Center
04:55PM 45.2583 -94.9833 95° East 531 611 35,900 900 Climbing Minneapolis Center
04:56PM 45.2428 -94.7336 95° East 531 611 37,000 480 Climbing Minneapolis Center
04:57PM 45.2308 -94.5572 95° East 524 603 37,000  Level Minneapolis Center
04:58PM 45.1339 -94.3589 125° Southeast 524 603 37,000  Level Minneapolis Center
04:59PM 45.0281 -94.2189 137° Southeast 523 602 37,000  Level Minneapolis Center
05:00PM 44.9228 -94.0797 137° Southeast 525 604 37,000  Level Minneapolis Center
05:01PM 44.8208 -93.9403 136° Southeast 517 595 37,000  Level Minneapolis Center
05:03PM 44.7181 -93.8044 137° Southeast 513 590 37,000  Level Minneapolis Center
05:04PM 44.5722 -93.6144 137° Southeast 518 596 37,000  Level Minneapolis Center
05:05PM 44.4697 -93.4822 137° Southeast 514 592 37,000  Level Minneapolis Center
05:06PM 44.3683 -93.3483 137° Southeast 510 587 37,000  Level Minneapolis Center
05:08PM 44.1506 -93.0658 137° Southeast 492 566 37,000  Level Minneapolis Center
05:09PM 44.0719 -92.9658 138° Southeast 485 558 37,000  Level Minneapolis Center
05:10PM 43.9553 -92.8156 137° Southeast 482 555 37,000  Level Minneapolis Center
05:11PM 43.8533 -92.7019 141° Southeast 474 545 37,000  Level Minneapolis Center
05:12PM 43.7492 -92.5925 143° Southeast 473 544 37,000  Level Minneapolis Center
05:13PM 43.6303 -92.4583 141° Southeast 471 542 37,000  Level Minneapolis Center
05:14PM 43.5550 -92.3114 125° Southeast 472 543 37,000 -420 Level Minneapolis Center
05:15PM 43.4900 -92.1608 121° Southeast 462 532 36,200 -900 Descending Minneapolis Center
05:16PM 43.4603 -91.9869 103° East 469 540 35,200 -600 Descending Minneapolis Center
05:17PM 43.4617 -91.8119 89° East 464 534 35,000 -120 Descending Minneapolis Center
05:18PM 43.4808 -91.6417 81° East 456 525 35,000  Level Minneapolis Center
05:19PM 43.5161 -91.4019 78° East 454 522 35,000  Level Minneapolis Center
05:20PM 43.5531 -91.2397 73° East 453 521 35,000  Level Minneapolis Center
05:21PM 43.6100 -91.0861 63° Northeast 452 520 35,000  Level Minneapolis Center
05:22PM 43.6625 -90.9289 65° Northeast 453 521 35,000  Level Minneapolis Center
05:23PM 43.7272 -90.7419 64° Northeast 453 521 35,000  Level Minneapolis Center
05:24PM 43.7864 -90.5706 64° Northeast 461 531 35,000 180 Level Minneapolis Center
05:26PM 43.8408 -90.4061 65° Northeast 468 539 35,400 480 Climbing Minneapolis Center
05:27PM 43.8967 -90.2400 65° Northeast 474 545 36,100 660 Climbing Minneapolis Center
05:28PM 43.9514 -90.0717 66° East 482 555 36,800 420 Climbing Minneapolis Center
05:29PM 44.0067 -89.9036 65° Northeast 478 550 37,000 60 Climbing Minneapolis Center
05:30PM 44.0628 -89.7358 65° Northeast 477 549 37,000  Level Minneapolis Center
05:31PM 44.1275 -89.5400 65° Northeast 477 549 37,000  Level Minneapolis Center
05:32PM 44.1817 -89.3711 66° East 475 547 37,000  Level Minneapolis Center
05:33PM 44.2378 -89.1992 65° Northeast 482 555 37,000  Level Minneapolis Center
05:34PM 44.2875 -89.0219 69° East 488 562 37,000  Level Minneapolis Center
05:35PM 44.3031 -88.8319 83° East 493 567 37,000  Level Minneapolis Center
05:36PM 44.3164 -88.6394 84° East 495 570 37,000  Level Minneapolis Center
05:37PM 44.3317 -88.4164 84° East 492 566 37,000  Level Minneapolis Center
05:38PM 44.3456 -88.2258 84° East 493 567 37,000  Level Minneapolis Center
05:39PM 44.3567 -88.0356 85° East 491 565 37,000  Level Minneapolis Center
05:40PM 44.3681 -87.8461 85° East 489 563 37,000  Level Minneapolis Center
05:41PM 44.3806 -87.6578 85° East 486 559 37,000  Level Minneapolis Center
05:42PM 44.3908 -87.4694 86° East 485 558 37,000  Level Minneapolis Center
05:43PM 44.4039 -87.2494 85° East 486 559 37,000  Level Minneapolis Center
05:44PM 44.4139 -87.0581 86° East 485 558 37,000  Level Minneapolis Center
05:45PM 44.4231 -86.8708 86° East 485 558 37,000  Level Minneapolis Center
05:46PM 44.4333 -86.6858 85° East 483 556 37,000  Level Minneapolis Center
05:47PM 44.4428 -86.4978 86° East 486 559 37,000  Level Minneapolis Center
05:48PM 44.4531 -86.3103 86° East 488 562 37,000  Level Minneapolis Center
05:49PM 44.4622 -86.0858 87° East 487 560 37,000  Level Minneapolis Center
05:50PM 44.4717 -85.8978 86° East 492 566 37,000  Level Minneapolis Center
05:51PM 44.4794 -85.7086 87° East 493 567 37,000  Level Minneapolis Center
05:52PM 44.4875 -85.5192 87° East 492 566 37,000  Level Minneapolis Center
05:53PM 44.5017 -85.3294 84° East 493 567 37,000  Level Minneapolis Center
05:54PM 44.5194 -85.0992 84° East 497 572 37,000  Level Minneapolis Center
05:56PM 44.5242 -84.9075 88° East 496 571 37,000  Level Minneapolis Center
05:57PM 44.5308 -84.7150 87° East 495 570 37,000  Level Minneapolis Center
05:59PM 44.5431 -84.3275 87° East 500 575 37,000  Level Minneapolis Center
06:00PM 44.5506 -84.0956 87° East 498 573 37,000  Level Minneapolis Center
06:01PM 44.5556 -83.9000 88° East 501 577 37,000  Level Minneapolis Center
06:02PM 44.5589 -83.7044 89° East 503 579 37,000  Level Minneapolis Center
06:03PM 44.5647 -83.5089 88° East 504 580 37,000  Level Minneapolis Center
06:04PM 44.5700 -83.3133 88° East 504 580 37,000  Level Minneapolis Center
06:05PM 44.5736 -83.1169 88° East 505 581 37,000  Level Minneapolis Center
06:06PM 44.5761 -82.8831 89° East 503 579 37,000  Level Minneapolis Center
06:07PM 44.5792 -82.6889 89° East 501 577 37,000  Level Minneapolis Center
06:08PM 44.5828 -82.4944 88° East 500 575 37,000  Level Minneapolis Center
06:09PM 44.5667 -82.3000 97° East 500 575 37,000  Level Toronto Center
06:10PM 44.5667 -82.1167 90° East 500 575 37,000  Level Toronto Center
06:11PM 44.5833 -81.9333 83° East 500 575 37,000  Level Toronto Center
06:12PM 44.5833 -81.7167 90° East 500 575 37,000  Level Toronto Center
06:13PM 44.5833 -81.5333 90° East 510 587 37,000  Level Toronto Center
06:14PM 44.5667 -81.3167 96° East 510 587 37,000  Level Toronto Center
06:15PM 44.5667 -81.1333 90° East 500 575 37,000  Level Toronto Center
06:16PM 44.5667 -80.9500 90° East 500 575 37,000  Level Toronto Center
06:17PM 44.5833 -80.7333 84° East 500 575 37,000  Level Toronto Center
06:18PM 44.5833 -80.5500 90° East 500 575 37,000  Level Toronto Center
06:19PM 44.5833 -80.3500 90° East 490 564 37,000  Level Toronto Center
06:20PM 44.5833 -80.1667 90° East 490 564 37,000  Level Toronto Center
06:21PM 44.5667 -79.9833 97° East 490 564 37,000  Level Toronto Center
06:22PM 44.5667 -79.7667 90° East 490 564 37,000  Level Toronto Center
06:23PM 44.5500 -79.6167 99° East 490 564 37,000  Level Toronto Center
06:24PM 44.5167 -79.4000 102° East 490 564 37,000  Level Toronto Center
06:25PM 44.4833 -79.2167 104° East 500 575 37,000  Level Toronto Center
06:26PM 44.4667 -79.0500 98° East 490 564 37,000  Level Toronto Center
06:27PM 44.4333 -78.8333 102° East 500 575 37,000  Level Toronto Center
06:28PM 44.4000 -78.6500 104° East 500 575 37,000  Level Toronto Center
06:29PM 44.3500 -78.4667 111° Southeast 500 575 37,000  Level Toronto Center
06:30PM 44.3333 -78.2833 97° East 500 575 37,000  Level Toronto Center
06:31PM 44.3000 -78.0667 102° East 500 575 37,000 -480 Level Toronto Center
06:32PM 44.3167 -77.8833 83° East 490 564 36,100 -960 Descending Toronto Center
06:33PM 44.3333 -77.7000 83° East 490 564 35,100 -600 Descending Toronto Center
06:34PM 44.3500 -77.5167 83° East 500 575 35,000 -180 Descending Toronto Center
06:35PM 44.3500 -77.3167 90° East 500 575 34,800 -600 Descending Toronto Center
06:36PM 44.3833 -77.1333 76° East 480 552 33,800 -1,020 Descending Toronto Center
06:37PM 44.4333 -76.9667 67° East 480 552 32,800 -960 Descending Toronto Center
06:38PM 44.4000 -76.7667 103° East 490 564 31,900 -960 Descending Toronto Center
06:39PM 44.2833 -76.7000 158° South 520 598 30,900 -960 Descending Toronto Center
06:40PM 44.1167 -76.6167 160° South 520 598 30,000 -960 Descending Toronto Center
06:41PM 43.9833 -76.5500 160° South 510 587 29,000 -1,020 Descending Toronto Center
06:42PM 43.8500 -76.4833 160° South 520 598 28,000 -960 Descending Toronto Center
06:43PM 43.7167 -76.4333 165° South 530 610 27,100 -540 Descending Toronto Center
06:44PM 43.5833 -76.3667 160° South 530 610 27,000 -60 Descending Toronto Center
06:45PM 43.4450 -76.3325 170° South 529 609 27,000 -60 Level Boston Center
06:46PM 43.3031 -76.2722 163° South 529 609 26,900  Descending Boston Center
06:47PM 43.1861 -76.1567 144° Southeast 528 608 27,000  Climbing Boston Center
06:48PM 43.0819 -76.0222 137° Southeast 519 597 26,900 -60 Descending Boston Center
06:49PM 42.9756 -75.8883 137° Southeast 519 597 26,900  Level Boston Center
06:50PM 42.8772 -75.7639 137° Southeast 514 592 27,000 -480 Climbing Boston Center
06:51PM 42.7864 -75.6514 138° Southeast 479 551 26,000 -1,080 Descending Boston Center
06:52PM 42.6778 -75.5919 158° South 430 495 24,900 -1,080 Descending Boston Center
06:53PM 42.5725 -75.5528 165° South 407 468 23,900 -1,020 Descending Boston Center
06:54PM 42.4692 -75.5139 164° South 396 456 22,900 -1,020 Descending Boston Center
06:55PM 42.3792 -75.4533 154° Southeast 384 442 21,900 -900 Descending Boston Center
06:56PM 42.3136 -75.3322 126° Southeast 379 436 21,100 -840 Descending Boston Center
06:57PM 42.2456 -75.2167 128° Southeast 391 450 20,300 -1,020 Descending Boston Center
06:58PM 42.1653 -75.0900 131° Southeast 411 473 19,100 -720 Descending Boston Center
06:59PM 42.1031 -74.9867 129° Southeast 390 449 18,900 -60 Descending Boston Center
07:00PM 42.0444 -74.8919 130° Southeast 371 427 19,000 -780 Climbing Boston Center
07:01PM 41.9761 -74.7803 129° Southeast 357 411 17,400 -1,500 Descending Boston Center
07:02PM 41.9719 -74.6686 93° East 318 366 16,000 -1,200 Descending Boston Center
07:03PM 41.9892 -74.5350 80° East 318 366 15,000 -540 Descending Boston Center
07:04PM 41.9556 -74.4361 115° Southeast 312 359 15,000  Level Boston Center
07:05PM 41.9153 -74.3594 125° Southeast 312 359 15,000 -600 Level Boston Center
07:06PM 41.8222 -74.3067 157° South 309 356 13,800 -1,320 Descending Boston Center
07:07PM 41.7267 -74.2897 172° South 302 348 12,400 -1,320 Descending Boston Center
07:08PM 41.6517 -74.2906 180° South 311 358 11,200 -1,380 Descending Boston Center
07:09PM 41.5678 -74.3242 197° South 305 351 9,700 -1,440 Descending Boston Center
07:10PM 41.5006 -74.3525 198° South 289 333 8,400 -1,020 Descending Boston Center
07:12PM 41.3500 -74.4000 193° South 274 315 7,000 -840 Descending New York TRACON
07:13PM 41.2833 -74.4000 180° South 280 322 6,200 -540 Descending New York TRACON
07:14PM 41.2000 -74.4000 180° South 272 313 6,000 -600 Descending New York TRACON
07:15PM 41.1333 -74.3500 151° Southeast 292 336 5,100 -600 Descending New York TRACON
07:16PM 41.0833 -74.2833 135° Southeast 261 300 4,900 -300 Descending New York TRACON
07:17PM 41.0167 -74.2333 150° Southeast 232 267 4,500 -480 Descending New York TRACON
07:18PM 40.9833 -74.1833 131° Southeast 213 245 4,000 -480 Descending New York TRACON
07:19PM 40.9500 -74.1167 123° Southeast 201 231 3,500 -540 Descending New York TRACON
07:20PM 40.9000 -74.0833 153° Southeast 196 226 3,000 -300 Descending New York TRACON
07:21PM 40.8500 -74.0667 166° South 191 220 3,000 -360 Level New York TRACON
07:22PM 40.8000 -74.1000 207° Southwest 185 213 2,300 -840 Descending New York TRACON
07:23PM 40.7667 -74.1167 201° Southwest 173 199 1,400 -900 Descending New York TRACON
07:24PM 40.7167 -74.1500 207° Southwest 159 183 500 -840 Descending New York TRACON